Time;durP1;ratioP1;P1;durP2;ratioP2;P2;SDS_P1;SDS_P2;PMS_P1;PMS_P2;Temp;Humidity;BMP_temperature;BMP_pressure;BME280_temperature;BME280_humidity;BME280_pressure;Samples;Min_cycle;Max_cycle;Signal;HPM_P1;HPM_P2
2021/07/22 00:00:01;;;;;;;6.65;2.67;;;;;;;18.69;59.40;99090.53;1808100;79;21037;-40
2021/07/22 00:02:27;;;;;;;5.33;2.80;;;;;;;18.62;59.67;99100.45;1807951;79;21128;-40
2021/07/22 00:04:54;;;;;;;5.28;2.55;;;;;;;18.58;59.89;99092.88;1808167;79;21282;-40
2021/07/22 00:07:21;;;;;;;4.17;2.33;;;;;;;18.56;59.93;99092.50;1808440;78;21087;-40
2021/07/22 00:09:48;;;;;;;10.32;2.65;;;;;;;18.57;60.01;99090.54;1807975;78;20926;-40
2021/07/22 00:12:14;;;;;;;7.17;2.87;;;;;;;18.56;60.33;99092.50;1808142;79;21079;-40
2021/07/22 00:14:41;;;;;;;5.17;2.52;;;;;;;18.57;60.11;99098.18;1807939;79;21833;-40
2021/07/22 00:17:09;;;;;;;4.45;2.70;;;;;;;18.54;59.97;99103.12;1808001;79;21072;-40
2021/07/22 00:19:36;;;;;;;4.50;2.58;;;;;;;18.49;60.00;99099.45;1807900;79;20890;-40
2021/07/22 00:22:04;;;;;;;3.75;2.90;;;;;;;18.44;60.12;99098.58;1807868;79;21045;-40
2021/07/22 00:24:31;;;;;;;5.33;2.65;;;;;;;18.46;60.26;99102.27;1807928;78;21056;-40
2021/07/22 00:26:58;;;;;;;4.40;2.80;;;;;;;18.49;60.16;99099.45;1808027;78;21879;-40
2021/07/22 00:29:27;;;;;;;5.22;2.60;;;;;;;18.50;60.05;99107.87;1807893;79;21029;-40
2021/07/22 00:31:53;;;;;;;7.25;2.87;;;;;;;18.50;60.04;99111.20;1807961;78;21472;-40
2021/07/22 00:34:20;;;;;;;4.60;2.60;;;;;;;18.47;60.06;99107.34;1808008;79;20922;-40
2021/07/22 00:36:47;;;;;;;3.70;2.50;;;;;;;18.47;60.16;99111.46;1804717;79;20949;-40
2021/07/22 00:39:15;;;;;;;6.00;2.90;;;;;;;18.48;60.12;99108.91;1799500;79;21049;-39
2021/07/22 00:41:42;;;;;;;4.33;2.70;;;;;;;18.48;60.20;99118.51;1799638;79;20993;-40
2021/07/22 00:44:09;;;;;;;6.15;2.58;;;;;;;18.42;60.14;99120.17;1799410;79;21491;-39
2021/07/22 00:46:37;;;;;;;8.23;2.65;;;;;;;18.36;60.25;99112.82;1799293;79;20992;-40
2021/07/22 00:49:10;;;;;;;6.55;2.80;;;;;;;18.30;60.28;99120.00;1799576;79;21099;-40
2021/07/22 00:51:40;;;;;;;5.95;3.05;;;;;;;18.29;61.19;99126.08;1799550;79;21123;-40
2021/07/22 00:54:09;;;;;;;6.50;2.80;;;;;;;18.28;60.88;99117.66;1799492;78;21547;-40
2021/07/22 00:56:37;;;;;;;3.65;2.87;;;;;;;18.24;61.06;99127.92;1799344;79;20953;-40
2021/07/22 00:59:04;;;;;;;5.28;2.92;;;;;;;18.24;61.07;99123.80;1799316;79;21001;-40
2021/07/22 01:01:31;;;;;;;5.15;2.77;;;;;;;18.29;60.91;99126.08;1799683;78;21649;-40
2021/07/22 01:03:58;;;;;;;4.60;2.60;;;;;;;18.30;60.70;99128.98;1799297;79;21342;-40
2021/07/22 01:06:26;;;;;;;7.22;3.20;;;;;;;18.30;60.83;99124.12;1799363;79;21021;-40
2021/07/22 01:08:53;;;;;;;8.25;2.87;;;;;;;18.31;60.71;99126.42;1799402;78;20957;-40
2021/07/22 01:11:22;;;;;;;4.62;3.05;;;;;;;18.32;60.76;99125.83;1799703;78;20950;-40
2021/07/22 01:13:49;;;;;;;6.20;2.90;;;;;;;18.34;60.61;99131.69;1799424;79;21029;-40
2021/07/22 01:16:16;;;;;;;5.87;3.15;;;;;;;18.35;60.64;99135.99;1799765;79;21000;-40
2021/07/22 01:18:45;;;;;;;6.20;3.10;;;;;;;18.32;60.60;99140.33;1799296;79;20934;-40
2021/07/22 01:21:12;;;;;;;5.65;2.87;;;;;;;18.31;60.44;99138.77;1799746;78;21020;-40
2021/07/22 01:23:39;;;;;;;4.92;3.50;;;;;;;18.27;60.48;99142.77;1799409;79;21004;-40
2021/07/22 01:26:12;;;;;;;7.90;3.20;;;;;;;18.25;60.37;99140.43;1780826;79;21498;-40
2021/07/22 01:28:40;;;;;;;5.60;3.10;;;;;;;18.20;60.33;99140.30;1799532;79;21156;-40
2021/07/22 01:31:07;;;;;;;4.50;2.75;;;;;;;18.18;60.35;99146.04;1799260;79;21000;-40
2021/07/22 01:33:33;;;;;;;7.55;3.10;;;;;;;18.14;60.37;99146.70;1799596;78;20961;-40
2021/07/22 01:36:00;;;;;;;4.97;3.02;;;;;;;18.13;60.39;99145.14;1799683;79;20973;-40
2021/07/22 01:38:27;;;;;;;6.87;2.98;;;;;;;18.15;60.35;99149.00;1799296;79;21060;-40
2021/07/22 01:40:54;;;;;;;4.50;2.80;;;;;;;18.21;60.24;99145.20;1799743;79;21767;-40
2021/07/22 01:43:21;;;;;;;8.88;3.00;;;;;;;18.25;59.98;99145.33;1799403;79;21524;-40
2021/07/22 01:45:49;;;;;;;4.03;2.90;;;;;;;18.25;59.85;99144.55;1799745;78;20965;-40
2021/07/22 01:48:17;;;;;;;11.50;3.20;;;;;;;18.27;59.67;99148.25;1799449;79;21091;-40
2021/07/22 01:50:45;;;;;;;5.65;2.67;;;;;;;18.26;59.73;99154.34;1793092;78;21016;-40
2021/07/22 01:53:12;;;;;;;4.20;2.72;;;;;;;18.23;59.82;99152.44;1799274;79;21180;-40
2021/07/22 01:55:39;;;;;;;4.22;2.80;;;;;;;18.20;59.83;99152.66;1799631;79;20957;-40
2021/07/22 01:58:06;;;;;;;9.58;3.12;;;;;;;18.16;59.94;99158.80;1799359;79;21005;-40
2021/07/22 02:00:34;;;;;;;7.00;2.95;;;;;;;18.12;59.89;99162.78;1799756;78;21084;-40
2021/07/22 02:03:01;;;;;;;6.37;3.00;;;;;;;18.04;60.05;99168.20;1799356;79;21002;-40
2021/07/22 02:05:43;;;;;;;7.53;2.90;;;;;;;18.01;60.11;99164.30;1786394;79;21122;-40
2021/07/22 02:08:11;;;;;;;5.00;2.90;;;;;;;17.98;60.38;99165.73;1799272;78;21005;-40
2021/07/22 02:10:38;;;;;;;5.70;3.15;;;;;;;17.95;60.29;99169.31;1799458;79;20945;-40
2021/07/22 02:13:05;;;;;;;5.65;2.77;;;;;;;17.93;60.44;99166.20;1799326;79;21021;-40
2021/07/22 02:15:34;;;;;;;4.40;2.80;;;;;;;17.91;60.29;99169.34;1799301;78;21033;-40
2021/07/22 02:18:01;;;;;;;6.87;2.75;;;;;;;17.87;60.58;99164.50;1799281;78;21134;-40
2021/07/22 02:20:28;;;;;;;5.50;2.83;;;;;;;17.83;60.44;99171.23;1799246;79;21592;-40
2021/07/22 02:22:56;;;;;;;8.28;2.85;;;;;;;17.78;60.71;99170.50;1799407;78;21562;-40
2021/07/22 02:25:24;;;;;;;6.03;2.75;;;;;;;17.79;60.85;99177.55;1799186;78;21025;-40
2021/07/22 02:27:53;;;;;;;7.47;2.70;;;;;;;17.81;60.84;99175.77;1799710;78;21025;-40
2021/07/22 02:30:21;;;;;;;6.45;3.20;;;;;;;17.84;60.96;99171.42;1799639;78;21105;-40
2021/07/22 02:32:48;;;;;;;5.10;3.20;;;;;;;17.86;61.15;99181.39;1799534;79;21507;-40
2021/07/22 02:35:15;;;;;;;8.88;3.33;;;;;;;17.89;61.06;99179.19;1799538;78;21072;-40
2021/07/22 02:38:00;;;;;;;9.88;3.00;;;;;;;17.90;60.76;99179.38;1799473;79;21056;-40
2021/07/22 02:40:29;;;;;;;5.17;3.10;;;;;;;17.90;60.73;99184.86;1799626;78;21068;-40
2021/07/22 02:42:56;;;;;;;3.27;2.62;;;;;;;17.87;60.55;99178.81;1799368;79;21794;-40
2021/07/22 02:45:24;;;;;;;7.30;2.98;;;;;;;17.86;60.64;99183.55;1799680;78;20933;-40
2021/07/22 02:47:51;;;;;;;4.33;2.95;;;;;;;17.85;60.59;99178.46;1799565;79;21535;-40
2021/07/22 02:50:18;;;;;;;10.93;3.47;;;;;;;17.83;60.57;99180.83;1799690;78;20994;-40
2021/07/22 02:52:46;;;;;;;9.80;3.42;;;;;;;17.81;60.37;99188.11;1799518;78;21463;-40
2021/07/22 02:55:14;;;;;;;19.45;4.67;;;;;;;17.75;60.76;99185.05;1799576;79;21766;-40
2021/07/22 02:57:41;;;;;;;9.13;3.83;;;;;;;17.74;61.02;99184.86;1799388;79;21071;-40
2021/07/22 03:00:10;;;;;;;9.95;3.87;;;;;;;17.72;61.11;99189.97;1799385;79;21060;-40
2021/07/22 03:02:36;;;;;;;15.23;4.53;;;;;;;17.75;61.20;99198.76;1799558;79;21518;-40
2021/07/22 03:05:05;;;;;;;12.13;3.27;;;;;;;17.82;61.17;99200.62;1799563;78;20978;-40
2021/07/22 03:07:34;;;;;;;12.60;3.47;;;;;;;17.85;61.10;99196.28;1799841;78;21731;-40
2021/07/22 03:10:02;;;;;;;11.88;3.83;;;;;;;17.88;61.05;99198.20;1794967;78;20996;-40
2021/07/22 03:12:31;;;;;;;6.80;2.85;;;;;;;17.90;60.88;99195.83;1799496;79;21004;-40
2021/07/22 03:14:59;;;;;;;3.98;2.92;;;;;;;17.91;61.18;99200.13;1799390;79;20926;-40
2021/07/22 03:17:27;;;;;;;7.90;2.75;;;;;;;17.93;60.92;99204.00;1799430;78;21051;-40
2021/07/22 03:19:55;;;;;;;7.60;3.08;;;;;;;17.97;60.72;99206.69;1799503;78;21519;-40
2021/07/22 03:22:27;;;;;;;4.87;2.70;;;;;;;17.98;61.02;99210.99;1795767;79;21012;-40
2021/07/22 03:24:55;;;;;;;8.53;3.25;;;;;;;17.99;60.90;99209.81;1799544;79;21033;-40
2021/07/22 03:27:24;;;;;;;4.83;2.80;;;;;;;17.99;60.88;99208.44;1795102;79;21016;-40
2021/07/22 03:29:51;;;;;;;5.40;3.08;;;;;;;17.98;60.95;99214.52;1799448;78;21048;-40
2021/07/22 03:32:18;;;;;;;6.05;3.05;;;;;;;17.97;60.99;99218.45;1799474;78;21599;-40
2021/07/22 03:34:46;;;;;;;4.60;2.33;;;;;;;17.97;61.22;99221.19;1799431;79;21029;-40
2021/07/22 03:37:14;;;;;;;4.75;2.80;;;;;;;18.02;61.13;99220.73;1797857;78;21029;-40
2021/07/22 03:39:43;;;;;;;4.58;2.65;;;;;;;18.12;60.97;99225.30;1790952;79;20993;-40
2021/07/22 03:42:11;;;;;;;8.75;2.60;;;;;;;18.16;60.35;99225.23;1791223;80;21347;-40
2021/07/22 03:44:56;;;;;;;9.38;2.92;;;;;;;18.18;59.83;99226.98;1790984;80;21125;-40
2021/07/22 03:47:23;;;;;;;7.90;2.77;;;;;;;18.21;59.75;99230.27;1791111;79;21476;-40
2021/07/22 03:49:51;;;;;;;8.65;3.15;;;;;;;18.23;59.22;99227.30;1791060;79;20993;-40
2021/07/22 03:52:23;;;;;;;7.30;2.95;;;;;;;18.26;59.45;99227.05;1791396;79;21526;-40
2021/07/22 03:54:54;;;;;;;13.72;3.05;;;;;;;18.30;59.62;99229.16;1791129;79;21041;-40
2021/07/22 03:57:20;;;;;;;5.33;2.90;;;;;;;18.29;59.46;99234.48;1791307;79;21039;-40
2021/07/22 03:59:48;;;;;;;8.55;2.67;;;;;;;18.28;59.09;99237.63;1791061;80;21032;-40
2021/07/22 04:02:14;;;;;;;7.65;2.80;;;;;;;18.29;59.39;99237.23;1769853;80;21609;-40
2021/07/22 04:04:43;;;;;;;4.65;2.20;;;;;;;18.31;59.45;99240.91;1791166;79;21536;-40
2021/07/22 04:07:10;;;;;;;6.35;2.33;;;;;;;18.33;58.89;99239.32;1791036;79;21572;-40
2021/07/22 04:09:52;;;;;;;5.12;2.62;;;;;;;18.34;59.02;99242.25;1779331;79;22621;-40
2021/07/22 04:12:22;;;;;;;5.30;2.27;;;;;;;18.38;58.57;99246.31;1765956;80;21040;-40
2021/07/22 04:15:07;;;;;;;4.62;2.17;;;;;;;18.40;58.32;99246.06;1772087;81;21023;-40
2021/07/22 04:17:51;;;;;;;3.15;2.17;;;;;;;18.39;58.06;99245.13;1798677;79;21022;-40
2021/07/22 04:20:20;;;;;;;2.40;1.87;;;;;;;18.37;58.09;99246.91;1794789;79;21456;-40
2021/07/22 04:22:53;;;;;;;5.00;2.30;;;;;;;18.09;57.76;99208.89;1795746;79;21116;-40
2021/07/22 04:25:24;;;;;;;4.83;2.20;;;;;;;18.38;57.79;99253.95;1789588;79;20977;-40
2021/07/22 04:27:56;;;;;;;5.47;2.15;;;;;;;18.39;57.69;99250.02;1790020;79;21033;-40
2021/07/22 04:30:24;;;;;;;6.72;2.30;;;;;;;18.43;57.60;99257.60;1791344;80;21552;-40
2021/07/22 04:32:58;;;;;;;7.10;2.22;;;;;;;18.48;57.41;99251.65;1784710;79;21049;-40
2021/07/22 04:35:30;;;;;;;4.45;2.30;;;;;;;18.54;57.08;99258.86;1791134;79;21525;-40
2021/07/22 04:38:13;;;;;;;7.58;2.30;;;;;;;18.58;56.65;99249.38;1791637;79;20950;-40
2021/07/22 04:40:58;;;;;;;3.35;2.00;;;;;;;18.56;56.24;99250.96;1791280;80;20993;-41
2021/07/22 04:43:30;;;;;;;5.70;2.30;;;;;;;18.54;57.17;99251.38;1789387;79;20995;-40
2021/07/22 04:46:05;;;;;;;4.80;2.35;;;;;;;18.55;56.74;99246.06;1775504;79;20991;-40
2021/07/22 04:48:50;;;;;;;8.28;2.47;;;;;;;18.54;56.39;99252.74;1791316;80;21113;-40
2021/07/22 04:51:18;;;;;;;6.78;2.52;;;;;;;18.52;56.61;99254.33;1786223;79;21013;-40
2021/07/22 04:53:47;;;;;;;4.78;2.42;;;;;;;18.52;56.92;99250.22;1786389;79;21025;-40
2021/07/22 04:56:13;;;;;;;6.30;2.30;;;;;;;18.23;56.57;99202.61;1791208;80;21017;-40
2021/07/22 04:58:40;;;;;;;3.75;2.15;;;;;;;18.55;56.73;99241.95;1791439;80;21548;-40
2021/07/22 05:01:09;;;;;;;8.68;2.15;;;;;;;18.60;56.39;99248.34;1790305;79;21188;-40
2021/07/22 05:03:37;;;;;;;4.17;2.20;;;;;;;18.68;56.16;99240.78;1791395;80;21045;-40
2021/07/22 05:06:09;;;;;;;4.70;2.20;;;;;;;18.76;56.06;99246.93;1782379;80;20929;-39
2021/07/22 05:08:49;;;;;;;6.08;2.35;;;;;;;18.81;56.15;99243.12;1773114;80;20989;-40
2021/07/22 05:11:17;;;;;;;4.67;2.45;;;;;;;18.86;56.09;99248.73;1772962;80;20985;-40
2021/07/22 05:13:48;;;;;;;6.33;2.15;;;;;;;18.87;55.79;99242.83;1772982;80;21114;-40
2021/07/22 05:16:34;;;;;;;6.72;2.33;;;;;;;18.93;56.03;99245.85;1772361;81;20985;-40
2021/07/22 05:19:02;;;;;;;3.85;2.00;;;;;;;18.99;55.89;99241.44;1772885;80;21023;-40
2021/07/22 05:21:47;;;;;;;7.12;2.50;;;;;;;19.07;56.60;99244.27;1772604;81;21103;-40
2021/07/22 05:24:16;;;;;;;6.53;2.45;;;;;;;19.17;56.45;99238.40;1772722;80;21060;-40
2021/07/22 05:26:44;;;;;;;5.95;2.25;;;;;;;19.23;56.19;99238.08;1772587;80;21527;-40
2021/07/22 05:29:31;;;;;;;5.03;2.08;;;;;;;19.29;56.13;99239.15;1772404;81;20943;-40
2021/07/22 05:32:03;;;;;;;4.40;2.30;;;;;;;19.34;55.40;99232.57;1762809;80;21020;-40
2021/07/22 05:34:41;;;;;;;4.05;2.05;;;;;;;19.38;55.37;99237.40;1761033;79;21077;-39
2021/07/22 05:37:12;;;;;;;3.17;2.20;;;;;;;19.36;53.94;99238.44;1760917;79;20998;-40
2021/07/22 05:39:52;;;;;;;6.62;2.80;;;;;;;19.36;53.43;99241.78;1760015;80;21523;-40
2021/07/22 05:42:18;;;;;;;6.83;2.50;;;;;;;19.34;54.01;99244.94;1760146;80;21244;-40
2021/07/22 05:44:45;;;;;;;5.70;2.20;;;;;;;19.35;53.59;99245.72;1760090;80;21076;-40
2021/07/22 05:47:13;;;;;;;4.08;2.40;;;;;;;19.40;54.37;99243.27;1760139;80;21491;-40
2021/07/22 05:49:40;;;;;;;4.33;2.30;;;;;;;19.45;54.62;99242.81;1760104;81;21264;-40
2021/07/22 05:52:07;;;;;;;7.78;2.35;;;;;;;19.49;54.33;99249.02;1760107;81;21132;-40
2021/07/22 05:54:34;;;;;;;6.78;2.00;;;;;;;19.57;54.46;99250.23;1759820;81;20970;-40
2021/07/22 05:57:01;;;;;;;4.65;2.33;;;;;;;19.65;54.84;99253.05;1760280;81;21020;-40
2021/07/22 05:59:28;;;;;;;4.25;2.30;;;;;;;19.74;54.83;99253.25;1760394;81;21484;-40
2021/07/22 06:01:55;;;;;;;4.50;2.42;;;;;;;19.86;54.84;99249.84;1760152;81;21076;-40
2021/07/22 06:04:22;;;;;;;4.65;2.67;;;;;;;19.94;53.99;99263.03;1760359;81;21131;-40
2021/07/22 06:06:48;;;;;;;5.62;2.40;;;;;;;20.03;53.94;99263.86;1760159;80;21030;-40
2021/07/22 06:09:16;;;;;;;4.30;2.27;;;;;;;20.11;53.82;99261.12;1760368;80;20969;-40
2021/07/22 06:11:43;;;;;;;4.08;2.40;;;;;;;20.19;53.11;99261.73;1760179;80;21022;-40
2021/07/22 06:14:10;;;;;;;3.55;2.30;;;;;;;20.26;53.44;99256.86;1760202;81;21108;-40
2021/07/22 06:16:36;;;;;;;3.33;2.45;;;;;;;20.34;53.15;99260.25;1760126;81;21614;-40
2021/07/22 06:19:03;;;;;;;6.33;2.22;;;;;;;20.41;53.41;99262.86;1760149;81;20961;-40
2021/07/22 06:21:29;;;;;;;6.67;2.52;;;;;;;20.51;53.35;99254.18;1760187;81;20950;-40
2021/07/22 06:23:56;;;;;;;6.67;2.67;;;;;;;20.61;53.09;99266.33;1760372;81;20969;-40
2021/07/22 06:26:23;;;;;;;7.70;2.33;;;;;;;20.72;52.77;99263.33;1760289;80;21092;-40
2021/07/22 06:28:49;;;;;;;5.58;2.37;;;;;;;20.76;53.05;99263.42;1759971;81;21834;-40
2021/07/22 06:31:17;;;;;;;5.17;2.65;;;;;;;20.83;52.67;99265.98;1774591;80;21065;-40
2021/07/22 06:33:43;;;;;;;5.83;2.20;;;;;;;20.90;52.46;99265.65;1791466;80;20994;-40
2021/07/22 06:36:11;;;;;;;3.17;2.20;;;;;;;20.96;52.55;99261.92;1791582;79;20973;-40
2021/07/22 06:38:39;;;;;;;5.37;2.45;;;;;;;21.03;52.82;99267.27;1794561;79;21037;-40
2021/07/22 06:41:06;;;;;;;3.65;2.42;;;;;;;21.14;52.09;99265.06;1799794;78;21100;-40
2021/07/22 06:43:33;;;;;;;6.10;2.40;;;;;;;21.24;52.46;99264.02;1799863;79;20930;-40
2021/07/22 06:46:00;;;;;;;4.55;2.25;;;;;;;21.34;52.12;99266.92;1799778;79;21025;-40
2021/07/22 06:48:27;;;;;;;5.15;2.60;;;;;;;21.40;52.00;99267.92;1799818;79;21029;-40
2021/07/22 06:50:54;;;;;;;5.60;2.45;;;;;;;21.46;51.67;99273.09;1799895;78;20998;-40
2021/07/22 06:53:21;;;;;;;3.62;2.37;;;;;;;21.57;51.31;99273.59;1799864;79;22307;-40
2021/07/22 06:55:48;;;;;;;4.12;2.58;;;;;;;21.63;51.12;99275.99;1799719;79;21008;-40
2021/07/22 06:58:15;;;;;;;4.50;2.45;;;;;;;21.66;51.97;99270.97;1799876;79;21010;-40
2021/07/22 07:00:42;;;;;;;4.25;2.45;;;;;;;21.74;51.57;99273.69;1799796;78;21843;-40
2021/07/22 07:03:10;;;;;;;5.00;2.47;;;;;;;21.82;51.16;99277.82;1799781;79;21005;-40
2021/07/22 07:05:36;;;;;;;6.05;2.40;;;;;;;21.91;52.33;99279.94;1799733;79;21056;-40
2021/07/22 07:08:05;;;;;;;5.17;2.30;;;;;;;22.00;51.24;99276.73;1799742;79;21508;-40
2021/07/22 07:10:31;;;;;;;5.87;2.62;;;;;;;22.09;51.35;99272.72;1800060;78;21479;-40
2021/07/22 07:13:00;;;;;;;7.45;2.40;;;;;;;22.20;51.51;99275.17;1799744;78;20973;-40
2021/07/22 07:15:26;;;;;;;4.97;3.10;;;;;;;22.31;51.09;99279.00;1800122;79;21076;-40
2021/07/22 07:17:53;;;;;;;4.28;2.77;;;;;;;22.40;50.96;99281.28;1799635;78;21126;-40
2021/07/22 07:20:20;;;;;;;5.53;2.10;;;;;;;22.49;50.82;99273.70;1799793;79;20914;-40
2021/07/22 07:22:48;;;;;;;4.67;2.62;;;;;;;22.54;50.42;99271.77;1799932;79;21084;-40
2021/07/22 07:25:15;;;;;;;6.20;2.25;;;;;;;22.59;49.84;99279.52;1799696;79;21025;-42
2021/07/22 07:27:42;;;;;;;8.25;2.40;;;;;;;22.65;49.57;99276.37;1799755;79;20994;-42
2021/07/22 07:30:12;;;;;;;6.53;2.50;;;;;;;22.73;50.21;99279.70;1799626;79;21220;-42
2021/07/22 07:32:39;;;;;;;3.70;2.33;;;;;;;22.80;49.73;99280.86;1799717;78;20906;-42
2021/07/22 07:35:07;;;;;;;4.15;2.35;;;;;;;22.88;49.69;99281.56;1800114;79;20994;-42
2021/07/22 07:37:34;;;;;;;5.40;2.75;;;;;;;23.02;49.97;99281.70;1799707;79;20986;-42
2021/07/22 07:40:00;;;;;;;3.42;2.37;;;;;;;23.09;49.48;99286.23;1799828;79;20998;-42
2021/07/22 07:42:26;;;;;;;5.50;2.60;;;;;;;23.13;50.14;99281.36;1799779;79;21085;-42
2021/07/22 07:44:53;;;;;;;6.67;2.35;;;;;;;23.19;50.12;99285.11;1800036;78;20997;-42
2021/07/22 07:47:20;;;;;;;5.92;2.20;;;;;;;23.25;49.05;99274.41;1799653;79;20961;-42
2021/07/22 07:49:48;;;;;;;3.20;2.40;;;;;;;23.34;49.18;99286.93;1799818;79;21501;-42
2021/07/22 07:52:15;;;;;;;3.50;2.17;;;;;;;23.43;48.34;99288.25;1799778;79;21017;-42
2021/07/22 07:54:43;;;;;;;5.25;1.85;;;;;;;23.44;48.62;99291.16;1799769;78;21065;-42
2021/07/22 07:57:10;;;;;;;3.30;2.30;;;;;;;23.54;48.56;99292.20;1799761;78;21692;-42
2021/07/22 07:59:37;;;;;;;4.85;2.33;;;;;;;23.69;48.81;99284.95;1799711;79;21018;-42
2021/07/22 08:02:03;;;;;;;5.03;2.42;;;;;;;23.85;48.66;99280.45;1799657;79;21025;-42
2021/07/22 08:04:30;;;;;;;6.35;2.35;;;;;;;24.00;47.81;99285.64;1799883;79;21539;-42
2021/07/22 08:06:59;;;;;;;4.72;2.42;;;;;;;24.01;47.63;99283.78;1792103;78;21036;-42
2021/07/22 08:09:25;;;;;;;5.00;2.35;;;;;;;24.02;47.54;99284.55;1780593;80;21514;-42
2021/07/22 08:11:54;;;;;;;3.62;2.00;;;;;;;24.06;47.24;99281.06;1780776;80;21012;-42
2021/07/22 08:14:20;;;;;;;4.20;2.45;;;;;;;24.10;48.12;99281.70;1780875;80;21384;-39
2021/07/22 08:16:49;;;;;;;4.58;2.33;;;;;;;24.21;46.46;99279.31;1780707;80;21035;-39
2021/07/22 08:19:16;;;;;;;4.08;2.40;;;;;;;24.26;46.46;99275.95;1780836;80;21130;-39
2021/07/22 08:21:43;;;;;;;3.98;2.12;;;;;;;24.30;47.25;99269.69;1780717;80;21023;-40
2021/07/22 08:24:09;;;;;;;5.87;3.05;;;;;;;24.37;46.46;99277.71;1780760;80;21036;-39
2021/07/22 08:26:37;;;;;;;5.10;2.20;;;;;;;24.41;45.64;99278.95;1780634;80;21014;-39
2021/07/22 08:29:03;;;;;;;3.35;2.22;;;;;;;24.40;46.41;99273.27;1780892;80;20988;-39
2021/07/22 08:31:31;;;;;;;8.80;2.33;;;;;;;24.42;46.32;99275.73;1780539;80;21121;-39
2021/07/22 08:33:57;;;;;;;4.15;2.37;;;;;;;24.54;47.38;99276.87;1780852;80;20941;-39
2021/07/22 08:36:25;;;;;;;3.15;2.00;;;;;;;24.72;46.15;99275.55;1780690;79;21084;-39
2021/07/22 08:38:52;;;;;;;3.95;2.42;;;;;;;24.87;45.82;99269.63;1779426;80;20989;-40
2021/07/22 08:41:19;;;;;;;3.33;2.30;;;;;;;25.06;46.68;99278.14;1775067;80;21530;-42
2021/07/22 08:43:48;;;;;;;4.92;2.45;;;;;;;25.16;45.06;99278.92;1774960;80;21942;-42
2021/07/22 08:46:15;;;;;;;2.92;1.90;;;;;;;25.16;44.73;99278.92;1775017;80;21008;-42
2021/07/22 08:48:42;;;;;;;6.75;2.25;;;;;;;25.05;44.86;99277.20;1774956;80;20913;-42
2021/07/22 08:51:09;;;;;;;4.22;2.22;;;;;;;24.91;45.20;99276.41;1742650;80;21027;-42
2021/07/22 08:53:37;;;;;;;2.98;2.10;;;;;;;24.92;45.58;99279.34;1774732;79;20979;-42
2021/07/22 08:56:07;;;;;;;3.72;2.30;;;;;;;25.05;45.31;99275.81;1774972;80;21865;-39
2021/07/22 08:58:39;;;;;;;6.15;2.15;;;;;;;25.17;44.68;99274.92;1774919;79;21037;-40
2021/07/22 09:01:13;;;;;;;6.33;2.17;;;;;;;25.23;44.04;99274.45;1775028;80;21806;-39
2021/07/22 09:03:39;;;;;;;3.33;2.00;;;;;;;25.20;44.47;99276.77;1775087;80;21014;-39
2021/07/22 09:06:14;;;;;;;5.08;2.40;;;;;;;25.21;43.88;99283.09;1774944;80;20989;-39
2021/07/22 09:08:41;;;;;;;3.20;2.00;;;;;;;25.28;43.98;99277.23;1775015;80;21708;-39
2021/07/22 09:11:10;;;;;;;3.75;2.00;;;;;;;25.41;43.57;99275.88;1774734;80;21518;-39
2021/07/22 09:13:37;;;;;;;5.45;2.45;;;;;;;25.57;43.50;99278.20;1775116;80;21032;-40
2021/07/22 09:16:04;;;;;;;3.58;2.27;;;;;;;25.65;42.43;99276.67;1774930;80;21033;-39
2021/07/22 09:18:36;;;;;;;3.58;2.30;;;;;;;25.60;41.92;99284.23;1774737;80;21056;-39
2021/07/22 09:21:23;;;;;;;3.17;2.25;;;;;;;25.50;41.97;99282.04;1774327;80;21325;-40
2021/07/22 09:24:08;;;;;;;4.42;2.25;;;;;;;25.38;42.63;99279.55;1775204;80;20980;-39
2021/07/22 09:26:38;;;;;;;2.98;2.10;;;;;;;25.27;43.23;99284.78;1774803;80;21027;-39
2021/07/22 09:29:11;;;;;;;6.08;2.42;;;;;;;25.14;42.53;99281.38;1775042;80;21009;-39
2021/07/22 09:31:38;;;;;;;4.17;2.20;;;;;;;25.06;42.38;99276.75;1774772;80;21001;-39
2021/07/22 09:34:17;;;;;;;5.20;2.47;;;;;;;25.12;42.28;99274.76;1768661;80;21077;-39
2021/07/22 09:36:43;;;;;;;2.77;2.08;;;;;;;25.18;42.92;99277.06;1773468;80;21008;-39
2021/07/22 09:39:25;;;;;;;2.60;1.92;;;;;;;25.27;41.16;99277.84;1779599;79;21129;-39
2021/07/22 09:42:06;;;;;;;3.25;2.10;;;;;;;25.40;40.40;99266.00;1799463;79;21557;-39
2021/07/22 09:44:37;;;;;;;2.87;2.10;;;;;;;25.59;40.70;99277.91;1797485;79;21082;-39
2021/07/22 09:47:07;;;;;;;2.45;1.87;;;;;;;25.82;39.40;99272.32;1802174;79;21197;-39
2021/07/22 09:49:39;;;;;;;3.67;1.80;;;;;;;25.94;37.45;99276.95;1803148;79;21007;-39
2021/07/22 09:54:56;;;;;;;6.25;2.30;;;;;;;26.08;38.23;99283.25;1782477;79;22670;-40
2021/07/22 09:57:23;;;;;;;3.55;2.20;;;;;;;26.11;39.34;99274.58;1729055;81;20973;-40
2021/07/22 09:59:51;;;;;;;3.47;2.08;;;;;;;26.32;38.10;99275.80;1727011;83;21121;-40
2021/07/22 10:02:23;;;;;;;3.83;1.95;;;;;;;26.48;37.85;99279.45;1726729;83;20933;-40
2021/07/22 10:04:57;;;;;;;5.70;2.25;;;;;;;26.55;35.81;99279.88;1726800;82;20953;-41
2021/07/22 10:07:24;;;;;;;3.15;1.90;;;;;;;26.55;35.53;99268.76;1726173;82;21008;-40
2021/07/22 10:09:57;;;;;;;3.92;2.12;;;;;;;26.55;36.73;99275.70;1726883;83;21035;-41
2021/07/22 10:12:24;;;;;;;3.70;1.92;;;;;;;26.63;35.86;99271.95;1708447;83;21108;-40
2021/07/22 10:14:55;;;;;;;3.37;2.10;;;;;;;26.68;36.31;99271.31;1726843;83;20976;-40
2021/07/22 10:17:33;;;;;;;4.67;2.17;;;;;;;26.74;36.39;99268.05;1727021;83;20997;-41
2021/07/22 10:20:03;;;;;;;5.30;2.30;;;;;;;26.77;35.97;99268.52;1726329;82;20985;-40
2021/07/22 10:22:30;;;;;;;2.50;1.90;;;;;;;26.89;35.84;99271.71;1746441;81;21606;-41
2021/07/22 10:24:57;;;;;;;4.15;2.05;;;;;;;27.00;35.98;99276.75;1748544;82;21126;-41
2021/07/22 10:27:24;;;;;;;3.17;2.30;;;;;;;27.08;35.21;99277.31;1748550;82;20957;-41
2021/07/22 10:29:52;;;;;;;3.62;1.85;;;;;;;27.26;36.61;99276.41;1748536;82;20969;-41
2021/07/22 10:32:21;;;;;;;3.75;1.75;;;;;;;27.45;34.64;99274.28;1729283;81;21037;-41
2021/07/22 10:34:50;;;;;;;2.58;1.98;;;;;;;27.59;33.45;99273.58;1726455;83;21038;-40
2021/07/22 10:37:18;;;;;;;2.50;2.02;;;;;;;27.77;34.33;99269.85;1708237;83;21144;-40
2021/07/22 10:40:10;;;;;;;3.05;1.80;;;;;;;27.99;34.59;99271.63;1726678;83;21028;-41
2021/07/22 10:42:48;;;;;;;4.58;2.12;;;;;;;28.08;34.00;99265.34;1726744;83;21025;-41
2021/07/22 10:45:24;;;;;;;4.60;2.40;;;;;;;28.00;34.27;99280.92;1726929;83;21048;-40
2021/07/22 10:48:08;;;;;;;3.02;2.27;;;;;;;27.68;33.45;99283.86;1726759;82;20977;-41
2021/07/22 10:50:44;;;;;;;4.40;2.33;;;;;;;27.27;34.93;99281.36;1720911;83;21157;-41
2021/07/22 10:53:11;;;;;;;5.05;2.27;;;;;;;27.13;34.90;99279.45;1724870;82;21077;-41
2021/07/22 10:55:46;;;;;;;3.35;2.22;;;;;;;27.17;34.89;99278.64;1714124;83;21540;-41
2021/07/22 10:58:33;;;;;;;2.70;1.85;;;;;;;27.39;35.05;99276.95;1714427;82;21034;-41
2021/07/22 11:01:01;;;;;;;4.08;2.30;;;;;;;27.67;34.75;99270.55;1736421;82;21052;-41
2021/07/22 11:03:43;;;;;;;5.53;2.30;;;;;;;28.04;32.96;99262.60;1744033;81;21094;-41
2021/07/22 11:06:11;;;;;;;5.10;2.08;;;;;;;28.29;32.18;99252.30;1743196;82;21008;-41
2021/07/22 11:08:39;;;;;;;3.58;2.25;;;;;;;28.58;32.87;99259.84;1743367;81;20895;-40
2021/07/22 11:11:09;;;;;;;2.52;1.80;;;;;;;28.86;32.42;99256.08;1742265;82;20973;-41
2021/07/22 11:13:50;;;;;;;1.90;1.77;;;;;;;29.01;32.96;99254.00;1743589;82;21038;-41
2021/07/22 11:16:22;;;;;;;4.62;2.30;;;;;;;29.04;32.81;99262.05;1742657;81;21126;-41
2021/07/22 11:19:02;;;;;;;5.22;1.80;;;;;;;28.88;32.73;99274.52;1759390;81;21014;-41
2021/07/22 11:21:33;;;;;;;4.03;2.10;;;;;;;28.55;31.63;99273.99;1759480;81;20922;-41
2021/07/22 11:24:15;;;;;;;2.52;1.90;;;;;;;28.25;32.94;99273.25;1764078;81;20975;-41
2021/07/22 11:26:40;;;;;;;4.50;2.33;;;;;;;28.12;32.90;99276.97;1763492;81;21108;-41
2021/07/22 11:29:08;;;;;;;5.53;2.17;;;;;;;27.98;32.30;99271.52;1763973;81;21127;-41
2021/07/22 11:31:43;;;;;;;2.65;2.08;;;;;;;28.07;33.07;99272.19;1733254;81;21475;-41
2021/07/22 11:34:09;;;;;;;4.55;2.25;;;;;;;28.35;32.51;99264.31;1713649;83;20994;-41
2021/07/22 11:36:36;;;;;;;4.30;2.30;;;;;;;28.73;31.43;99259.20;1713493;83;20982;-41
2021/07/22 11:39:04;;;;;;;4.08;1.87;;;;;;;29.15;30.47;99257.98;1713569;82;21056;-41
2021/07/22 11:41:31;;;;;;;3.42;2.20;;;;;;;29.29;30.61;99261.33;1713570;82;21117;-41
2021/07/22 11:44:02;;;;;;;3.90;2.00;;;;;;;29.26;30.79;99262.31;1713597;83;20994;-41
2021/07/22 11:46:43;;;;;;;3.83;1.97;;;;;;;28.99;31.27;99265.53;1713705;83;21353;-41